sensor_id;sensor_type;location;lat;lon;timestamp;temperature;humidity
5136;DHT22;2586;48.710;9.202;2022-10-16T20:48:51;15.10;1.00
5136;DHT22;2586;48.710;9.202;2022-10-16T20:51:28;14.90;1.00
5136;DHT22;2586;48.710;9.202;2022-10-16T20:53:56;15.00;45.60
5136;DHT22;2586;48.710;9.202;2022-10-16T20:56:23;15.00;1.00
5136;DHT22;2586;48.710;9.202;2022-10-16T20:58:49;15.00;1.00
5136;DHT22;2586;48.710;9.202;2022-10-16T21:01:18;15.00;1.00
5136;DHT22;2586;48.710;9.202;2022-10-16T21:03:47;15.00;1.00
5136;DHT22;2586;48.710;9.202;2022-10-16T21:06:13;14.90;99.90
5136;DHT22;2586;48.710;9.202;2022-10-16T21:08:41;14.90;1.00
5136;DHT22;2586;48.710;9.202;2022-10-16T21:11:12;14.80;99.90
5136;DHT22;2586;48.710;9.202;2022-10-16T21:13:38;14.80;1.00
5136;DHT22;2586;48.710;9.202;2022-10-16T21:16:05;14.80;1.00
5136;DHT22;2586;48.710;9.202;2022-10-16T21:18:30;14.80;99.90
5136;DHT22;2586;48.710;9.202;2022-10-16T21:20:56;14.80;99.90
5136;DHT22;2586;48.710;9.202;2022-10-16T21:23:21;14.70;99.90
5136;DHT22;2586;48.710;9.202;2022-10-16T21:25:48;14.70;1.00
5136;DHT22;2586;48.710;9.202;2022-10-16T21:28:14;14.60;1.00
5136;DHT22;2586;48.710;9.202;2022-10-16T21:30:40;14.60;1.00
5136;DHT22;2586;48.710;9.202;2022-10-16T21:33:05;14.50;1.00
5136;DHT22;2586;48.710;9.202;2022-10-16T21:35:31;14.50;1.00
5136;DHT22;2586;48.710;9.202;2022-10-16T21:37:56;14.40;1.00
5136;DHT22;2586;48.710;9.202;2022-10-16T21:40:22;14.40;1.00
5136;DHT22;2586;48.710;9.202;2022-10-16T21:42:47;14.40;1.00
5136;DHT22;2586;48.710;9.202;2022-10-16T21:45:13;14.30;1.00
5136;DHT22;2586;48.710;9.202;2022-10-16T21:47:39;14.20;1.00
5136;DHT22;2586;48.710;9.202;2022-10-16T21:50:04;14.20;1.00
5136;DHT22;2586;48.710;9.202;2022-10-16T21:52:30;14.20;1.00
5136;DHT22;2586;48.710;9.202;2022-10-16T21:54:56;14.20;1.00
5136;DHT22;2586;48.710;9.202;2022-10-16T21:57:21;14.20;1.00
5136;DHT22;2586;48.710;9.202;2022-10-16T21:59:48;14.20;1.00
5136;DHT22;2586;48.710;9.202;2022-10-16T22:02:17;14.20;1.00
5136;DHT22;2586;48.710;9.202;2022-10-16T22:04:43;14.20;1.00
5136;DHT22;2586;48.710;9.202;2022-10-16T22:07:08;14.20;1.00
5136;DHT22;2586;48.710;9.202;2022-10-16T22:09:34;14.10;1.00
5136;DHT22;2586;48.710;9.202;2022-10-16T22:11:59;14.10;1.00
5136;DHT22;2586;48.710;9.202;2022-10-16T22:14:25;14.00;1.00
5136;DHT22;2586;48.710;9.202;2022-10-16T22:16:51;14.00;1.00
5136;DHT22;2586;48.710;9.202;2022-10-16T22:19:19;14.10;1.00
5136;DHT22;2586;48.710;9.202;2022-10-16T22:21:45;14.10;1.00
5136;DHT22;2586;48.710;9.202;2022-10-16T22:24:13;14.00;1.00
5136;DHT22;2586;48.710;9.202;2022-10-16T22:26:38;13.90;1.90
5136;DHT22;2586;48.710;9.202;2022-10-16T22:29:05;13.90;23.60
5136;DHT22;2586;48.710;9.202;2022-10-16T22:31:31;14.00;99.90
5136;DHT22;2586;48.710;9.202;2022-10-16T22:33:58;13.90;16.50
5136;DHT22;2586;48.710;9.202;2022-10-16T22:36:26;13.90;51.70
5136;DHT22;2586;48.710;9.202;2022-10-16T22:38:51;13.90;38.30
5136;DHT22;2586;48.710;9.202;2022-10-16T22:41:18;13.80;55.20
5136;DHT22;2586;48.710;9.202;2022-10-16T22:43:44;13.90;1.00
5136;DHT22;2586;48.710;9.202;2022-10-16T22:46:15;13.80;1.00
5136;DHT22;2586;48.710;9.202;2022-10-16T22:48:41;13.70;24.00
5136;DHT22;2586;48.710;9.202;2022-10-16T22:51:07;13.70;44.10
5136;DHT22;2586;48.710;9.202;2022-10-16T22:53:34;13.70;71.30
5136;DHT22;2586;48.710;9.202;2022-10-16T22:56:00;13.70;91.80
5136;DHT22;2586;48.710;9.202;2022-10-16T22:58:26;13.70;12.10
5136;DHT22;2586;48.710;9.202;2022-10-16T23:00:52;13.60;96.60
5136;DHT22;2586;48.710;9.202;2022-10-16T23:03:18;13.60;89.40
5136;DHT22;2586;48.710;9.202;2022-10-16T23:05:44;13.60;97.30
5136;DHT22;2586;48.710;9.202;2022-10-16T23:08:10;13.60;90.00
5136;DHT22;2586;48.710;9.202;2022-10-16T23:10:44;13.60;15.50
5136;DHT22;2586;48.710;9.202;2022-10-16T23:13:11;13.60;23.90
5136;DHT22;2586;48.710;9.202;2022-10-16T23:15:42;13.50;51.00
5136;DHT22;2586;48.710;9.202;2022-10-16T23:18:08;13.50;99.90
5136;DHT22;2586;48.710;9.202;2022-10-16T23:20:34;13.40;99.90
5136;DHT22;2586;48.710;9.202;2022-10-16T23:23:00;13.40;99.90
5136;DHT22;2586;48.710;9.202;2022-10-16T23:25:25;13.30;99.90
5136;DHT22;2586;48.710;9.202;2022-10-16T23:27:54;13.30;99.90
5136;DHT22;2586;48.710;9.202;2022-10-16T23:30:19;13.30;99.90
5136;DHT22;2586;48.710;9.202;2022-10-16T23:32:45;13.20;99.90
5136;DHT22;2586;48.710;9.202;2022-10-16T23:35:10;13.20;99.90
5136;DHT22;2586;48.710;9.202;2022-10-16T23:37:36;13.00;99.90
5136;DHT22;2586;48.710;9.202;2022-10-16T23:40:02;13.00;99.90
5136;DHT22;2586;48.710;9.202;2022-10-16T23:42:28;13.00;99.90
5136;DHT22;2586;48.710;9.202;2022-10-16T23:44:53;13.00;99.90
5136;DHT22;2586;48.710;9.202;2022-10-16T23:47:19;13.00;99.90
5136;DHT22;2586;48.710;9.202;2022-10-16T23:49:44;13.00;99.90
5136;DHT22;2586;48.710;9.202;2022-10-16T23:52:10;13.00;99.90
5136;DHT22;2586;48.710;9.202;2022-10-16T23:54:35;13.00;99.90
5136;DHT22;2586;48.710;9.202;2022-10-16T23:57:01;12.90;99.90
5136;DHT22;2586;48.710;9.202;2022-10-16T23:59:26;12.90;99.90
